sensor_id;sensor_type;location;lat;lon;timestamp;P1;durP1;ratioP1;P2;durP2;ratioP2
60730;SDS011;46580;52.114;11.674;2023-03-12T00:01:19;2.83;;;1.50;;
60730;SDS011;46580;52.114;11.674;2023-03-12T00:03:47;2.33;;;0.97;;
60730;SDS011;46580;52.114;11.674;2023-03-12T00:06:13;4.00;;;0.97;;
60730;SDS011;46580;52.114;11.674;2023-03-12T00:08:39;1.33;;;1.13;;
60730;SDS011;46580;52.114;11.674;2023-03-12T00:11:06;4.43;;;1.53;;
60730;SDS011;46580;52.114;11.674;2023-03-12T00:13:32;1.80;;;1.00;;
60730;SDS011;46580;52.114;11.674;2023-03-12T00:16:01;3.53;;;1.40;;
60730;SDS011;46580;52.114;11.674;2023-03-12T00:18:28;2.37;;;1.30;;
60730;SDS011;46580;52.114;11.674;2023-03-12T00:20:54;7.00;;;1.30;;
60730;SDS011;46580;52.114;11.674;2023-03-12T00:23:19;8.03;;;1.50;;
60730;SDS011;46580;52.114;11.674;2023-03-12T00:25:44;1.73;;;0.90;;
60730;SDS011;46580;52.114;11.674;2023-03-12T00:28:10;1.40;;;1.00;;
60730;SDS011;46580;52.114;11.674;2023-03-12T00:30:35;5.27;;;1.23;;
60730;SDS011;46580;52.114;11.674;2023-03-12T00:33:01;4.70;;;1.03;;
60730;SDS011;46580;52.114;11.674;2023-03-12T00:35:26;2.03;;;0.73;;
60730;SDS011;46580;52.114;11.674;2023-03-12T00:37:51;1.23;;;0.97;;
60730;SDS011;46580;52.114;11.674;2023-03-12T00:40:17;4.47;;;1.10;;
60730;SDS011;46580;52.114;11.674;2023-03-12T00:42:42;5.00;;;1.33;;
60730;SDS011;46580;52.114;11.674;2023-03-12T00:45:08;3.67;;;1.10;;
60730;SDS011;46580;52.114;11.674;2023-03-12T00:47:33;4.73;;;1.10;;
60730;SDS011;46580;52.114;11.674;2023-03-12T00:49:59;2.57;;;1.30;;
60730;SDS011;46580;52.114;11.674;2023-03-12T00:52:24;1.00;;;0.90;;
60730;SDS011;46580;52.114;11.674;2023-03-12T00:54:49;1.97;;;0.90;;
60730;SDS011;46580;52.114;11.674;2023-03-12T00:57:15;1.57;;;0.83;;
60730;SDS011;46580;52.114;11.674;2023-03-12T00:59:41;4.67;;;0.90;;
60730;SDS011;46580;52.114;11.674;2023-03-12T01:02:08;3.10;;;1.03;;
60730;SDS011;46580;52.114;11.674;2023-03-12T01:04:35;4.60;;;1.03;;
60730;SDS011;46580;52.114;11.674;2023-03-12T01:07:01;1.47;;;0.87;;
60730;SDS011;46580;52.114;11.674;2023-03-12T01:09:27;3.03;;;1.10;;
60730;SDS011;46580;52.114;11.674;2023-03-12T01:11:53;3.10;;;1.43;;
60730;SDS011;46580;52.114;11.674;2023-03-12T01:14:18;5.03;;;1.40;;
60730;SDS011;46580;52.114;11.674;2023-03-12T01:16:43;2.37;;;0.90;;
60730;SDS011;46580;52.114;11.674;2023-03-12T01:19:09;2.00;;;0.77;;
60730;SDS011;46580;52.114;11.674;2023-03-12T01:21:35;1.83;;;1.50;;
60730;SDS011;46580;52.114;11.674;2023-03-12T01:24:02;2.00;;;0.80;;
60730;SDS011;46580;52.114;11.674;2023-03-12T01:26:27;1.90;;;0.93;;
60730;SDS011;46580;52.114;11.674;2023-03-12T01:28:54;3.20;;;0.97;;
60730;SDS011;46580;52.114;11.674;2023-03-12T01:31:19;2.87;;;0.90;;
60730;SDS011;46580;52.114;11.674;2023-03-12T01:33:50;2.07;;;1.13;;
60730;SDS011;46580;52.114;11.674;2023-03-12T01:36:19;2.70;;;0.80;;
60730;SDS011;46580;52.114;11.674;2023-03-12T01:38:52;1.10;;;0.63;;
60730;SDS011;46580;52.114;11.674;2023-03-12T01:41:19;1.43;;;0.70;;
60730;SDS011;46580;52.114;11.674;2023-03-12T01:43:45;0.83;;;0.70;;
60730;SDS011;46580;52.114;11.674;2023-03-12T01:49:16;4.83;;;1.03;;
60730;SDS011;46580;52.114;11.674;2023-03-12T01:51:49;3.47;;;1.00;;
60730;SDS011;46580;52.114;11.674;2023-03-12T01:54:23;1.90;;;0.87;;
60730;SDS011;46580;52.114;11.674;2023-03-12T01:56:54;3.60;;;1.20;;
60730;SDS011;46580;52.114;11.674;2023-03-12T01:59:24;2.50;;;0.93;;
60730;SDS011;46580;52.114;11.674;2023-03-12T02:01:56;4.70;;;0.80;;
60730;SDS011;46580;52.114;11.674;2023-03-12T02:04:22;2.30;;;1.10;;
60730;SDS011;46580;52.114;11.674;2023-03-12T02:07:05;2.77;;;0.93;;
60730;SDS011;46580;52.114;11.674;2023-03-12T02:09:34;1.97;;;0.90;;
60730;SDS011;46580;52.114;11.674;2023-03-12T02:12:02;4.13;;;0.77;;
60730;SDS011;46580;52.114;11.674;2023-03-12T02:14:28;3.07;;;1.20;;
60730;SDS011;46580;52.114;11.674;2023-03-12T02:16:53;5.90;;;1.27;;
60730;SDS011;46580;52.114;11.674;2023-03-12T02:22:14;2.20;;;0.93;;
60730;SDS011;46580;52.114;11.674;2023-03-12T02:24:47;3.23;;;1.47;;
60730;SDS011;46580;52.114;11.674;2023-03-12T02:27:17;2.80;;;0.97;;
60730;SDS011;46580;52.114;11.674;2023-03-12T02:29:44;3.10;;;1.33;;
60730;SDS011;46580;52.114;11.674;2023-03-12T02:32:19;2.73;;;0.93;;
60730;SDS011;46580;52.114;11.674;2023-03-12T02:34:48;1.83;;;0.80;;
60730;SDS011;46580;52.114;11.674;2023-03-12T02:37:14;8.47;;;1.00;;
60730;SDS011;46580;52.114;11.674;2023-03-12T02:39:41;6.40;;;0.80;;
60730;SDS011;46580;52.114;11.674;2023-03-12T02:42:08;4.27;;;1.00;;
60730;SDS011;46580;52.114;11.674;2023-03-12T02:44:33;1.30;;;0.80;;
60730;SDS011;46580;52.114;11.674;2023-03-12T02:47:01;4.57;;;0.80;;
60730;SDS011;46580;52.114;11.674;2023-03-12T02:49:28;3.30;;;0.80;;
60730;SDS011;46580;52.114;11.674;2023-03-12T02:51:55;3.87;;;1.13;;
60730;SDS011;46580;52.114;11.674;2023-03-12T02:54:21;2.60;;;1.10;;
60730;SDS011;46580;52.114;11.674;2023-03-12T02:56:47;1.57;;;0.90;;
60730;SDS011;46580;52.114;11.674;2023-03-12T02:59:13;2.10;;;1.07;;
60730;SDS011;46580;52.114;11.674;2023-03-12T03:01:40;2.20;;;0.90;;
60730;SDS011;46580;52.114;11.674;2023-03-12T03:04:06;4.40;;;0.97;;
60730;SDS011;46580;52.114;11.674;2023-03-12T03:06:33;2.50;;;0.90;;
60730;SDS011;46580;52.114;11.674;2023-03-12T03:09:00;1.80;;;0.87;;
60730;SDS011;46580;52.114;11.674;2023-03-12T03:11:26;4.33;;;1.00;;
60730;SDS011;46580;52.114;11.674;2023-03-12T03:13:52;2.07;;;0.83;;
60730;SDS011;46580;52.114;11.674;2023-03-12T03:16:18;1.30;;;0.70;;
60730;SDS011;46580;52.114;11.674;2023-03-12T03:18:44;2.60;;;0.93;;
60730;SDS011;46580;52.114;11.674;2023-03-12T03:21:10;2.90;;;1.10;;
60730;SDS011;46580;52.114;11.674;2023-03-12T03:23:40;3.67;;;1.07;;
60730;SDS011;46580;52.114;11.674;2023-03-12T03:26:06;2.80;;;0.60;;
60730;SDS011;46580;52.114;11.674;2023-03-12T03:28:32;1.00;;;0.60;;
60730;SDS011;46580;52.114;11.674;2023-03-12T03:30:58;1.27;;;0.70;;
60730;SDS011;46580;52.114;11.674;2023-03-12T03:33:28;4.63;;;0.80;;
60730;SDS011;46580;52.114;11.674;2023-03-12T03:35:55;3.13;;;0.83;;
60730;SDS011;46580;52.114;11.674;2023-03-12T03:38:23;2.03;;;0.93;;
60730;SDS011;46580;52.114;11.674;2023-03-12T03:40:50;3.23;;;1.03;;
60730;SDS011;46580;52.114;11.674;2023-03-12T03:43:16;1.30;;;0.70;;
60730;SDS011;46580;52.114;11.674;2023-03-12T03:45:41;1.53;;;0.60;;
60730;SDS011;46580;52.114;11.674;2023-03-12T03:48:08;4.13;;;1.27;;
60730;SDS011;46580;52.114;11.674;2023-03-12T03:50:35;4.67;;;0.70;;
60730;SDS011;46580;52.114;11.674;2023-03-12T03:53:02;3.13;;;1.10;;
60730;SDS011;46580;52.114;11.674;2023-03-12T03:55:27;1.00;;;0.70;;
60730;SDS011;46580;52.114;11.674;2023-03-12T03:57:52;1.30;;;0.83;;
60730;SDS011;46580;52.114;11.674;2023-03-12T04:00:18;2.90;;;1.30;;
60730;SDS011;46580;52.114;11.674;2023-03-12T04:02:44;4.30;;;0.87;;
60730;SDS011;46580;52.114;11.674;2023-03-12T04:05:10;1.63;;;0.83;;
60730;SDS011;46580;52.114;11.674;2023-03-12T04:07:36;2.10;;;0.80;;
60730;SDS011;46580;52.114;11.674;2023-03-12T04:10:02;1.13;;;0.77;;
60730;SDS011;46580;52.114;11.674;2023-03-12T04:12:29;0.90;;;0.83;;
60730;SDS011;46580;52.114;11.674;2023-03-12T04:14:54;1.87;;;0.93;;
60730;SDS011;46580;52.114;11.674;2023-03-12T04:17:20;3.00;;;0.80;;
60730;SDS011;46580;52.114;11.674;2023-03-12T04:19:46;1.70;;;0.90;;
60730;SDS011;46580;52.114;11.674;2023-03-12T04:22:12;2.43;;;0.80;;
60730;SDS011;46580;52.114;11.674;2023-03-12T04:24:37;2.93;;;0.87;;
60730;SDS011;46580;52.114;11.674;2023-03-12T04:27:04;3.87;;;1.17;;
60730;SDS011;46580;52.114;11.674;2023-03-12T04:29:29;4.87;;;1.10;;
60730;SDS011;46580;52.114;11.674;2023-03-12T04:31:56;2.13;;;0.80;;
60730;SDS011;46580;52.114;11.674;2023-03-12T04:34:21;1.13;;;0.80;;
60730;SDS011;46580;52.114;11.674;2023-03-12T04:36:49;3.10;;;1.00;;
60730;SDS011;46580;52.114;11.674;2023-03-12T04:39:18;1.57;;;0.90;;
60730;SDS011;46580;52.114;11.674;2023-03-12T04:41:44;0.87;;;0.77;;
60730;SDS011;46580;52.114;11.674;2023-03-12T04:44:11;0.97;;;0.60;;
60730;SDS011;46580;52.114;11.674;2023-03-12T04:46:36;4.40;;;0.90;;
60730;SDS011;46580;52.114;11.674;2023-03-12T04:49:02;2.27;;;0.80;;
60730;SDS011;46580;52.114;11.674;2023-03-12T04:51:29;3.53;;;1.00;;
60730;SDS011;46580;52.114;11.674;2023-03-12T04:53:56;3.37;;;0.90;;
60730;SDS011;46580;52.114;11.674;2023-03-12T04:56:22;4.40;;;0.93;;
60730;SDS011;46580;52.114;11.674;2023-03-12T04:58:48;1.93;;;0.70;;
60730;SDS011;46580;52.114;11.674;2023-03-12T05:01:18;1.00;;;0.73;;
60730;SDS011;46580;52.114;11.674;2023-03-12T05:03:47;1.77;;;0.70;;
60730;SDS011;46580;52.114;11.674;2023-03-12T05:06:14;0.80;;;0.60;;
60730;SDS011;46580;52.114;11.674;2023-03-12T05:08:40;1.60;;;0.80;;
60730;SDS011;46580;52.114;11.674;2023-03-12T05:11:05;2.93;;;0.90;;
60730;SDS011;46580;52.114;11.674;2023-03-12T05:13:32;4.50;;;1.07;;
60730;SDS011;46580;52.114;11.674;2023-03-12T05:15:58;4.10;;;0.93;;
60730;SDS011;46580;52.114;11.674;2023-03-12T05:18:24;2.00;;;0.80;;
60730;SDS011;46580;52.114;11.674;2023-03-12T05:21:00;3.10;;;1.10;;
60730;SDS011;46580;52.114;11.674;2023-03-12T05:23:28;1.20;;;0.97;;
60730;SDS011;46580;52.114;11.674;2023-03-12T05:25:56;3.10;;;0.87;;
60730;SDS011;46580;52.114;11.674;2023-03-12T05:28:22;6.03;;;0.90;;
60730;SDS011;46580;52.114;11.674;2023-03-12T05:30:55;1.37;;;0.73;;
60730;SDS011;46580;52.114;11.674;2023-03-12T05:33:25;1.43;;;0.83;;
60730;SDS011;46580;52.114;11.674;2023-03-12T05:35:52;1.30;;;0.80;;
60730;SDS011;46580;52.114;11.674;2023-03-12T05:38:18;2.43;;;0.87;;
60730;SDS011;46580;52.114;11.674;2023-03-12T05:40:54;2.20;;;0.97;;
60730;SDS011;46580;52.114;11.674;2023-03-12T05:43:21;4.30;;;1.53;;
60730;SDS011;46580;52.114;11.674;2023-03-12T05:45:47;1.73;;;0.70;;
60730;SDS011;46580;52.114;11.674;2023-03-12T05:48:14;1.75;;;0.98;;
60730;SDS011;46580;52.114;11.674;2023-03-12T05:50:39;2.23;;;0.90;;
60730;SDS011;46580;52.114;11.674;2023-03-12T05:53:06;1.83;;;0.90;;
60730;SDS011;46580;52.114;11.674;2023-03-12T05:55:36;2.47;;;0.80;;
60730;SDS011;46580;52.114;11.674;2023-03-12T05:58:04;2.03;;;0.90;;
60730;SDS011;46580;52.114;11.674;2023-03-12T06:00:31;1.10;;;0.80;;
60730;SDS011;46580;52.114;11.674;2023-03-12T06:02:57;2.03;;;1.10;;
60730;SDS011;46580;52.114;11.674;2023-03-12T06:05:22;2.37;;;0.83;;
60730;SDS011;46580;52.114;11.674;2023-03-12T06:07:48;3.03;;;1.10;;
60730;SDS011;46580;52.114;11.674;2023-03-12T06:10:14;3.27;;;0.93;;
60730;SDS011;46580;52.114;11.674;2023-03-12T06:12:39;1.93;;;1.00;;
60730;SDS011;46580;52.114;11.674;2023-03-12T06:15:05;0.97;;;0.80;;
60730;SDS011;46580;52.114;11.674;2023-03-12T06:17:31;4.73;;;1.40;;
60730;SDS011;46580;52.114;11.674;2023-03-12T06:19:57;2.73;;;1.03;;
60730;SDS011;46580;52.114;11.674;2023-03-12T06:22:24;6.83;;;1.03;;
60730;SDS011;46580;52.114;11.674;2023-03-12T06:24:50;6.07;;;1.53;;
60730;SDS011;46580;52.114;11.674;2023-03-12T06:27:15;2.20;;;1.30;;
60730;SDS011;46580;52.114;11.674;2023-03-12T06:29:41;5.23;;;1.53;;
60730;SDS011;46580;52.114;11.674;2023-03-12T06:32:07;4.27;;;1.57;;
60730;SDS011;46580;52.114;11.674;2023-03-12T06:34:33;6.20;;;1.47;;
60730;SDS011;46580;52.114;11.674;2023-03-12T06:36:59;4.40;;;2.00;;
60730;SDS011;46580;52.114;11.674;2023-03-12T06:39:25;2.60;;;1.40;;
60730;SDS011;46580;52.114;11.674;2023-03-12T06:41:53;2.87;;;1.50;;
60730;SDS011;46580;52.114;11.674;2023-03-12T06:44:19;6.37;;;1.80;;
60730;SDS011;46580;52.114;11.674;2023-03-12T06:46:45;2.37;;;1.33;;
60730;SDS011;46580;52.114;11.674;2023-03-12T06:49:11;2.20;;;1.30;;
60730;SDS011;46580;52.114;11.674;2023-03-12T06:51:37;2.87;;;1.67;;
60730;SDS011;46580;52.114;11.674;2023-03-12T06:54:03;1.73;;;1.27;;
60730;SDS011;46580;52.114;11.674;2023-03-12T06:56:30;2.40;;;1.50;;
60730;SDS011;46580;52.114;11.674;2023-03-12T06:58:57;1.70;;;1.00;;
60730;SDS011;46580;52.114;11.674;2023-03-12T07:01:23;1.27;;;1.17;;
60730;SDS011;46580;52.114;11.674;2023-03-12T07:03:49;3.47;;;1.20;;
60730;SDS011;46580;52.114;11.674;2023-03-12T07:06:16;2.77;;;1.00;;
60730;SDS011;46580;52.114;11.674;2023-03-12T07:08:45;2.13;;;1.30;;
60730;SDS011;46580;52.114;11.674;2023-03-12T07:11:11;3.70;;;1.40;;
60730;SDS011;46580;52.114;11.674;2023-03-12T07:13:37;7.43;;;1.80;;
60730;SDS011;46580;52.114;11.674;2023-03-12T07:16:04;4.10;;;1.70;;
60730;SDS011;46580;52.114;11.674;2023-03-12T07:18:30;7.10;;;2.10;;
60730;SDS011;46580;52.114;11.674;2023-03-12T07:20:55;3.87;;;1.37;;
60730;SDS011;46580;52.114;11.674;2023-03-12T07:23:21;4.77;;;1.50;;
60730;SDS011;46580;52.114;11.674;2023-03-12T07:25:47;1.90;;;1.57;;
60730;SDS011;46580;52.114;11.674;2023-03-12T07:28:13;3.90;;;2.17;;
60730;SDS011;46580;52.114;11.674;2023-03-12T07:30:40;2.33;;;1.53;;
60730;SDS011;46580;52.114;11.674;2023-03-12T07:33:07;6.70;;;1.70;;
60730;SDS011;46580;52.114;11.674;2023-03-12T07:35:37;4.80;;;2.67;;
60730;SDS011;46580;52.114;11.674;2023-03-12T07:38:03;3.67;;;2.03;;
60730;SDS011;46580;52.114;11.674;2023-03-12T07:40:30;4.57;;;2.23;;
60730;SDS011;46580;52.114;11.674;2023-03-12T07:42:55;5.10;;;2.27;;
60730;SDS011;46580;52.114;11.674;2023-03-12T07:45:21;3.77;;;1.50;;
60730;SDS011;46580;52.114;11.674;2023-03-12T07:47:47;4.17;;;1.83;;
60730;SDS011;46580;52.114;11.674;2023-03-12T07:50:13;2.87;;;1.60;;
60730;SDS011;46580;52.114;11.674;2023-03-12T07:52:39;3.80;;;1.27;;
60730;SDS011;46580;52.114;11.674;2023-03-12T07:55:05;4.47;;;2.13;;
60730;SDS011;46580;52.114;11.674;2023-03-12T07:57:31;4.97;;;1.70;;
60730;SDS011;46580;52.114;11.674;2023-03-12T07:59:57;2.33;;;1.40;;
60730;SDS011;46580;52.114;11.674;2023-03-12T08:02:23;3.50;;;2.23;;
60730;SDS011;46580;52.114;11.674;2023-03-12T08:04:48;2.97;;;1.80;;
60730;SDS011;46580;52.114;11.674;2023-03-12T08:07:14;3.07;;;1.73;;
60730;SDS011;46580;52.114;11.674;2023-03-12T08:09:39;2.60;;;1.97;;
60730;SDS011;46580;52.114;11.674;2023-03-12T08:12:05;3.63;;;1.67;;
60730;SDS011;46580;52.114;11.674;2023-03-12T08:14:31;4.40;;;1.70;;
60730;SDS011;46580;52.114;11.674;2023-03-12T08:16:57;4.67;;;2.20;;
60730;SDS011;46580;52.114;11.674;2023-03-12T08:19:24;3.40;;;2.43;;
60730;SDS011;46580;52.114;11.674;2023-03-12T08:21:49;4.90;;;2.87;;
60730;SDS011;46580;52.114;11.674;2023-03-12T08:24:16;4.03;;;2.67;;
60730;SDS011;46580;52.114;11.674;2023-03-12T08:26:41;5.87;;;2.70;;
60730;SDS011;46580;52.114;11.674;2023-03-12T08:29:07;2.37;;;2.10;;
60730;SDS011;46580;52.114;11.674;2023-03-12T08:31:32;7.17;;;2.30;;
60730;SDS011;46580;52.114;11.674;2023-03-12T08:33:57;4.97;;;2.60;;
60730;SDS011;46580;52.114;11.674;2023-03-12T08:36:22;4.80;;;2.17;;
60730;SDS011;46580;52.114;11.674;2023-03-12T08:38:48;6.57;;;2.80;;
60730;SDS011;46580;52.114;11.674;2023-03-12T08:41:13;4.90;;;2.30;;
60730;SDS011;46580;52.114;11.674;2023-03-12T08:43:38;4.97;;;2.57;;
60730;SDS011;46580;52.114;11.674;2023-03-12T08:46:04;5.17;;;2.40;;
60730;SDS011;46580;52.114;11.674;2023-03-12T08:48:30;4.27;;;2.03;;
60730;SDS011;46580;52.114;11.674;2023-03-12T08:50:57;4.70;;;2.77;;
60730;SDS011;46580;52.114;11.674;2023-03-12T08:53:25;9.03;;;3.13;;
60730;SDS011;46580;52.114;11.674;2023-03-12T08:55:52;2.20;;;2.00;;
60730;SDS011;46580;52.114;11.674;2023-03-12T08:58:18;4.37;;;2.40;;
60730;SDS011;46580;52.114;11.674;2023-03-12T09:00:43;4.60;;;2.43;;
60730;SDS011;46580;52.114;11.674;2023-03-12T09:03:08;2.30;;;1.90;;
60730;SDS011;46580;52.114;11.674;2023-03-12T09:05:37;4.23;;;2.03;;
60730;SDS011;46580;52.114;11.674;2023-03-12T09:08:03;3.53;;;2.03;;
60730;SDS011;46580;52.114;11.674;2023-03-12T09:10:29;3.90;;;2.27;;
60730;SDS011;46580;52.114;11.674;2023-03-12T09:12:54;5.00;;;1.93;;
60730;SDS011;46580;52.114;11.674;2023-03-12T09:15:20;4.87;;;2.67;;
60730;SDS011;46580;52.114;11.674;2023-03-12T09:17:45;6.63;;;3.83;;
60730;SDS011;46580;52.114;11.674;2023-03-12T09:20:12;8.40;;;3.30;;
60730;SDS011;46580;52.114;11.674;2023-03-12T09:22:41;4.73;;;2.20;;
60730;SDS011;46580;52.114;11.674;2023-03-12T09:25:07;3.17;;;2.10;;
60730;SDS011;46580;52.114;11.674;2023-03-12T09:27:35;3.37;;;1.70;;
60730;SDS011;46580;52.114;11.674;2023-03-12T09:30:03;3.57;;;1.90;;
60730;SDS011;46580;52.114;11.674;2023-03-12T09:32:30;5.50;;;2.50;;
60730;SDS011;46580;52.114;11.674;2023-03-12T09:34:56;4.93;;;2.13;;
60730;SDS011;46580;52.114;11.674;2023-03-12T09:37:21;7.23;;;1.80;;
60730;SDS011;46580;52.114;11.674;2023-03-12T09:39:48;3.27;;;1.70;;
60730;SDS011;46580;52.114;11.674;2023-03-12T09:42:19;4.07;;;1.63;;
60730;SDS011;46580;52.114;11.674;2023-03-12T09:44:49;3.87;;;1.97;;
60730;SDS011;46580;52.114;11.674;2023-03-12T09:52:44;2.67;;;1.83;;
60730;SDS011;46580;52.114;11.674;2023-03-12T09:55:15;4.57;;;1.30;;
60730;SDS011;46580;52.114;11.674;2023-03-12T09:57:43;2.93;;;1.10;;
60730;SDS011;46580;52.114;11.674;2023-03-12T10:00:12;2.00;;;1.20;;
60730;SDS011;46580;52.114;11.674;2023-03-12T10:08:26;1.60;;;1.10;;
60730;SDS011;46580;52.114;11.674;2023-03-12T10:13:39;4.30;;;1.20;;
60730;SDS011;46580;52.114;11.674;2023-03-12T10:16:24;1.60;;;1.07;;
60730;SDS011;46580;52.114;11.674;2023-03-12T10:19:26;3.67;;;1.03;;
60730;SDS011;46580;52.114;11.674;2023-03-12T10:27:52;8.17;;;1.30;;
60730;SDS011;46580;52.114;11.674;2023-03-12T10:30:24;3.37;;;1.10;;
60730;SDS011;46580;52.114;11.674;2023-03-12T10:32:55;3.37;;;1.47;;
60730;SDS011;46580;52.114;11.674;2023-03-12T10:35:25;3.87;;;1.83;;
60730;SDS011;46580;52.114;11.674;2023-03-12T10:37:59;4.53;;;1.97;;
60730;SDS011;46580;52.114;11.674;2023-03-12T10:40:27;3.30;;;1.30;;
60730;SDS011;46580;52.114;11.674;2023-03-12T10:42:55;3.13;;;1.37;;
60730;SDS011;46580;52.114;11.674;2023-03-12T10:47:51;2.40;;;1.17;;
60730;SDS011;46580;52.114;11.674;2023-03-12T10:50:25;3.63;;;1.30;;
60730;SDS011;46580;52.114;11.674;2023-03-12T10:53:13;3.73;;;1.60;;
60730;SDS011;46580;52.114;11.674;2023-03-12T10:56:06;4.93;;;1.50;;
60730;SDS011;46580;52.114;11.674;2023-03-12T11:01:03;5.23;;;1.30;;
60730;SDS011;46580;52.114;11.674;2023-03-12T11:03:30;4.67;;;1.50;;
60730;SDS011;46580;52.114;11.674;2023-03-12T11:05:59;3.80;;;1.60;;
60730;SDS011;46580;52.114;11.674;2023-03-12T11:10:59;3.30;;;1.60;;
60730;SDS011;46580;52.114;11.674;2023-03-12T11:13:33;6.23;;;1.50;;
60730;SDS011;46580;52.114;11.674;2023-03-12T11:18:42;4.47;;;1.40;;
60730;SDS011;46580;52.114;11.674;2023-03-12T11:21:20;4.63;;;1.53;;
60730;SDS011;46580;52.114;11.674;2023-03-12T11:24:01;4.20;;;1.70;;
60730;SDS011;46580;52.114;11.674;2023-03-12T11:29:33;6.40;;;1.40;;
60730;SDS011;46580;52.114;11.674;2023-03-12T11:34:39;2.73;;;1.93;;
60730;SDS011;46580;52.114;11.674;2023-03-12T11:40:05;2.10;;;1.60;;
60730;SDS011;46580;52.114;11.674;2023-03-12T11:42:47;2.70;;;2.07;;
60730;SDS011;46580;52.114;11.674;2023-03-12T11:50:50;5.07;;;1.43;;
60730;SDS011;46580;52.114;11.674;2023-03-12T12:28:29;8.77;;;3.73;;
60730;SDS011;46580;52.114;11.674;2023-03-12T12:31:06;3.43;;;1.70;;
60730;SDS011;46580;52.114;11.674;2023-03-12T12:33:41;3.33;;;2.00;;
60730;SDS011;46580;52.114;11.674;2023-03-12T12:36:31;7.50;;;1.70;;
60730;SDS011;46580;52.114;11.674;2023-03-12T12:39:01;4.07;;;1.80;;
60730;SDS011;46580;52.114;11.674;2023-03-12T12:41:31;3.97;;;1.70;;
60730;SDS011;46580;52.114;11.674;2023-03-12T12:44:09;3.70;;;1.60;;
60730;SDS011;46580;52.114;11.674;2023-03-12T12:46:47;3.67;;;1.60;;
60730;SDS011;46580;52.114;11.674;2023-03-12T12:49:18;3.23;;;1.80;;
60730;SDS011;46580;52.114;11.674;2023-03-12T12:51:52;1.90;;;0.93;;
60730;SDS011;46580;52.114;11.674;2023-03-12T12:57:14;2.60;;;1.33;;
60730;SDS011;46580;52.114;11.674;2023-03-12T13:02:26;4.63;;;1.17;;
60730;SDS011;46580;52.114;11.674;2023-03-12T13:04:55;3.70;;;1.17;;
60730;SDS011;46580;52.114;11.674;2023-03-12T13:09:51;2.23;;;1.03;;
60730;SDS011;46580;52.114;11.674;2023-03-12T13:12:35;9.93;;;1.60;;
60730;SDS011;46580;52.114;11.674;2023-03-12T13:20:28;3.60;;;1.57;;
60730;SDS011;46580;52.114;11.674;2023-03-12T13:23:20;3.27;;;1.67;;
60730;SDS011;46580;52.114;11.674;2023-03-12T13:30:57;3.00;;;1.30;;
60730;SDS011;46580;52.114;11.674;2023-03-12T13:38:54;5.77;;;1.30;;
60730;SDS011;46580;52.114;11.674;2023-03-12T13:41:29;5.07;;;1.80;;
60730;SDS011;46580;52.114;11.674;2023-03-12T13:49:43;2.97;;;2.07;;
60730;SDS011;46580;52.114;11.674;2023-03-12T13:54:49;3.93;;;2.00;;
60730;SDS011;46580;52.114;11.674;2023-03-12T13:57:39;3.47;;;2.23;;
60730;SDS011;46580;52.114;11.674;2023-03-12T14:02:44;4.53;;;2.07;;
60730;SDS011;46580;52.114;11.674;2023-03-12T14:05:14;2.63;;;2.00;;
60730;SDS011;46580;52.114;11.674;2023-03-12T14:08:18;2.90;;;1.57;;
60730;SDS011;46580;52.114;11.674;2023-03-12T14:16:56;5.83;;;1.50;;
60730;SDS011;46580;52.114;11.674;2023-03-12T14:19:30;2.50;;;1.90;;
60730;SDS011;46580;52.114;11.674;2023-03-12T14:22:02;4.40;;;2.17;;
60730;SDS011;46580;52.114;11.674;2023-03-12T14:24:33;4.00;;;1.70;;
60730;SDS011;46580;52.114;11.674;2023-03-12T14:27:04;2.50;;;1.90;;
60730;SDS011;46580;52.114;11.674;2023-03-12T14:29:40;5.17;;;1.97;;
60730;SDS011;46580;52.114;11.674;2023-03-12T14:32:26;5.77;;;2.43;;
60730;SDS011;46580;52.114;11.674;2023-03-12T14:35:01;4.10;;;2.27;;
60730;SDS011;46580;52.114;11.674;2023-03-12T14:37:31;11.07;;;2.90;;
60730;SDS011;46580;52.114;11.674;2023-03-12T14:40:05;4.70;;;2.70;;
60730;SDS011;46580;52.114;11.674;2023-03-12T14:42:38;2.63;;;2.40;;
60730;SDS011;46580;52.114;11.674;2023-03-12T14:47:41;5.63;;;2.50;;
60730;SDS011;46580;52.114;11.674;2023-03-12T14:50:18;3.87;;;2.33;;
60730;SDS011;46580;52.114;11.674;2023-03-12T14:52:46;4.27;;;2.93;;
60730;SDS011;46580;52.114;11.674;2023-03-12T14:55:13;5.40;;;2.50;;
60730;SDS011;46580;52.114;11.674;2023-03-12T14:57:42;3.40;;;2.83;;
60730;SDS011;46580;52.114;11.674;2023-03-12T15:00:29;3.80;;;2.87;;
60730;SDS011;46580;52.114;11.674;2023-03-12T15:02:54;4.20;;;3.00;;
60730;SDS011;46580;52.114;11.674;2023-03-12T15:05:23;4.37;;;3.03;;
60730;SDS011;46580;52.114;11.674;2023-03-12T15:07:49;3.57;;;3.17;;
60730;SDS011;46580;52.114;11.674;2023-03-12T15:10:24;6.37;;;3.00;;
60730;SDS011;46580;52.114;11.674;2023-03-12T15:12:53;5.07;;;2.97;;
60730;SDS011;46580;52.114;11.674;2023-03-12T15:15:38;4.43;;;3.03;;
60730;SDS011;46580;52.114;11.674;2023-03-12T15:18:18;5.43;;;3.00;;
60730;SDS011;46580;52.114;11.674;2023-03-12T15:20:47;5.07;;;3.10;;
60730;SDS011;46580;52.114;11.674;2023-03-12T15:23:14;8.37;;;3.30;;
60730;SDS011;46580;52.114;11.674;2023-03-12T15:25:42;5.77;;;3.47;;
60730;SDS011;46580;52.114;11.674;2023-03-12T15:30:34;8.43;;;3.67;;
60730;SDS011;46580;52.114;11.674;2023-03-12T15:38:52;9.00;;;4.17;;
60730;SDS011;46580;52.114;11.674;2023-03-12T15:41:43;6.03;;;3.60;;
60730;SDS011;46580;52.114;11.674;2023-03-12T15:44:18;4.37;;;3.33;;
60730;SDS011;46580;52.114;11.674;2023-03-12T15:46:50;6.97;;;4.20;;
60730;SDS011;46580;52.114;11.674;2023-03-12T15:49:23;6.17;;;3.43;;
60730;SDS011;46580;52.114;11.674;2023-03-12T15:51:58;7.17;;;3.80;;
60730;SDS011;46580;52.114;11.674;2023-03-12T15:54:26;5.60;;;3.63;;
60730;SDS011;46580;52.114;11.674;2023-03-12T15:56:53;4.40;;;3.47;;
60730;SDS011;46580;52.114;11.674;2023-03-12T15:59:35;5.10;;;4.00;;
60730;SDS011;46580;52.114;11.674;2023-03-12T16:02:01;5.57;;;3.90;;
60730;SDS011;46580;52.114;11.674;2023-03-12T16:04:26;8.37;;;3.97;;
60730;SDS011;46580;52.114;11.674;2023-03-12T16:06:52;5.80;;;3.80;;
60730;SDS011;46580;52.114;11.674;2023-03-12T16:09:24;8.93;;;3.90;;
60730;SDS011;46580;52.114;11.674;2023-03-12T16:11:51;6.47;;;4.10;;
60730;SDS011;46580;52.114;11.674;2023-03-12T16:16:51;5.77;;;3.63;;
60730;SDS011;46580;52.114;11.674;2023-03-12T16:19:19;4.47;;;3.67;;
60730;SDS011;46580;52.114;11.674;2023-03-12T16:21:46;4.90;;;3.50;;
60730;SDS011;46580;52.114;11.674;2023-03-12T16:24:12;7.10;;;3.57;;
60730;SDS011;46580;52.114;11.674;2023-03-12T16:26:58;5.63;;;3.80;;
60730;SDS011;46580;52.114;11.674;2023-03-12T16:29:26;4.50;;;3.77;;
60730;SDS011;46580;52.114;11.674;2023-03-12T16:31:56;5.67;;;3.60;;
60730;SDS011;46580;52.114;11.674;2023-03-12T16:34:22;7.40;;;4.20;;
60730;SDS011;46580;52.114;11.674;2023-03-12T16:36:48;6.37;;;5.07;;
60730;SDS011;46580;52.114;11.674;2023-03-12T16:39:14;5.73;;;3.30;;
60730;SDS011;46580;52.114;11.674;2023-03-12T16:41:39;4.57;;;3.33;;
60730;SDS011;46580;52.114;11.674;2023-03-12T16:44:06;4.10;;;3.37;;
60730;SDS011;46580;52.114;11.674;2023-03-12T16:46:39;4.57;;;4.17;;
60730;SDS011;46580;52.114;11.674;2023-03-12T16:49:11;3.90;;;3.50;;
60730;SDS011;46580;52.114;11.674;2023-03-12T16:51:38;5.00;;;4.10;;
60730;SDS011;46580;52.114;11.674;2023-03-12T16:54:03;6.17;;;4.23;;
60730;SDS011;46580;52.114;11.674;2023-03-12T16:56:29;7.10;;;5.40;;
60730;SDS011;46580;52.114;11.674;2023-03-12T16:58:55;6.77;;;5.00;;
60730;SDS011;46580;52.114;11.674;2023-03-12T17:01:23;10.10;;;4.47;;